createdAt,value
2022-10-19T00:00:25.173Z,99.16
2022-10-19T00:16:07.996Z,99
2022-10-19T00:31:50.250Z,98.89
2022-10-19T00:47:32.768Z,97.17
2022-10-19T01:03:15.148Z,96.47
2022-10-19T01:18:57.346Z,95.42
2022-10-19T01:34:40.043Z,94.35
2022-10-19T01:50:22.327Z,92.32
2022-10-19T02:06:04.974Z,91.79
2022-10-19T02:21:47.274Z,91.87
2022-10-19T02:37:30.036Z,92.22
2022-10-19T02:53:12.799Z,91.89
2022-10-19T03:08:55.811Z,91.51
2022-10-19T03:24:38.835Z,91.66
2022-10-19T03:40:21.211Z,91.54
2022-10-19T03:56:04.016Z,88.93
2022-10-19T04:11:46.201Z,85.82
2022-10-19T04:27:28.271Z,85.56
2022-10-19T04:43:10.853Z,86.43
2022-10-19T04:58:53.053Z,85.3
2022-10-19T05:14:35.253Z,83.07
2022-10-19T05:30:17.334Z,82.12
2022-10-19T05:46:00.266Z,83.02
2022-10-19T06:01:43.164Z,85.94
2022-10-19T06:17:26.223Z,86.89
2022-10-19T06:33:08.691Z,86.46
2022-10-19T06:48:50.986Z,84.53
2022-10-19T07:04:33.485Z,82.9
2022-10-19T07:20:15.933Z,82.24
2022-10-19T07:35:57.978Z,81.57
2022-10-19T07:51:40.318Z,80.37
2022-10-19T08:07:22.902Z,77.58
2022-10-19T08:23:05.912Z,75.48
2022-10-19T08:38:48.871Z,75.77
2022-10-19T08:54:31.534Z,77.51
2022-10-19T09:10:14.037Z,77.95
2022-10-19T09:25:56.301Z,75.46
2022-10-19T09:41:38.516Z,71.16
2022-10-19T09:57:20.586Z,70.62
2022-10-19T10:13:03.382Z,59.22
2022-10-19T10:28:45.596Z,52.99
2022-10-19T10:44:28.036Z,51.5
2022-10-19T11:00:10.349Z,50.49
2022-10-19T11:15:52.872Z,46.56
2022-10-19T11:31:35.229Z,43.72
2022-10-19T11:47:18.147Z,43.61
2022-10-19T12:03:00.233Z,38.78
2022-10-19T12:18:42.545Z,45
2022-10-19T12:34:25.490Z,47.21
2022-10-19T12:50:07.692Z,47.19
2022-10-19T12:50:54.932Z,47.47
2022-10-19T13:06:37.586Z,48.39
2022-10-19T13:22:20.188Z,41.43
2022-10-19T13:38:02.513Z,31.25
2022-10-19T13:53:44.897Z,32.03
2022-10-19T14:09:27.336Z,30.1
2022-10-19T14:25:09.345Z,30.86
2022-10-19T14:40:51.941Z,33.68
2022-10-19T14:56:34.678Z,41.14
2022-10-19T15:12:17.289Z,46.62
2022-10-19T15:28:00.159Z,52.43
2022-10-19T15:43:42.557Z,55.76
2022-10-19T15:59:25.480Z,58.76
2022-10-19T16:15:07.770Z,62.36
2022-10-19T16:30:49.854Z,64.71
2022-10-19T16:46:32.637Z,67.12
2022-10-19T17:02:15.366Z,69.06
2022-10-19T17:17:57.979Z,70.8
2022-10-19T17:33:40.739Z,73.36
2022-10-19T17:49:22.965Z,74.56
2022-10-19T18:05:05.683Z,76.44
2022-10-19T18:20:48.183Z,77.73
2022-10-19T18:36:30.315Z,79.2
2022-10-19T18:52:13.158Z,80.64
2022-10-19T19:07:56.119Z,81.66
2022-10-19T19:23:38.433Z,81.52
2022-10-19T19:39:21.198Z,82.07
2022-10-19T19:55:03.319Z,83.9
2022-10-19T20:10:45.597Z,84.08
2022-10-19T20:26:28.217Z,84.3
2022-10-19T20:42:10.872Z,84.51
2022-10-19T20:57:53.022Z,85.37
2022-10-19T21:13:36.065Z,85.04
2022-10-19T21:29:19.099Z,85.3
2022-10-19T21:45:02.192Z,86.53
2022-10-19T22:00:45.196Z,87.25
2022-10-19T22:16:28.177Z,88.08
2022-10-19T22:32:10.624Z,88.11
2022-10-19T22:47:53.334Z,88.19
2022-10-19T23:03:36.279Z,89.05
2022-10-19T23:19:18.990Z,89.46
2022-10-19T23:35:01.287Z,89.13
2022-10-19T23:50:43.919Z,88.46
